Grassland, Canada
Current Conditions -  °F | °C
As of 5:00 PM on Monday 20 Oct 2014 (Local Time) from CYED Reporting Station
Clear Clear  
Wind Chill: 68°   Ceiling: Unl
Heat Index: 68°   Visibility: 9mi
Dew Point: 34°   Wind: 6mph
Humidity: 28%   Direction: 190°S
Pressure: 29.51"   Gusts: NA
Location:  54.82°N, 112.69°W
Report Text: CYED 202300Z AUTO 19005KT 9SM CLR 20/01 A2951 RMK SLP001
Loading
Personal Weather Stations






























Interactive Weather Map
Tropical Storm Tracking
New forecast layout! Learn more

10-Day Weather Forecast

Advertisements
Track Severe Weather on mobile